Airport View

Enter AWOS ICAO identifier for current METAR.

ex. KFNL

KHYA 261116Z 00000KT 5SM -RA BR FEW002 OVC019 21/19 A2996 RMK AO2 RAB09 P0000 T02060189

26 Jun 2019 11:48

Phone: 508-862-2601

Other Area AWOS: KFMH - KCQX - KMVY - KPVC

TAF KHYA 260538Z 2606/2706 17008KT 3SM BR OVC008 FM260900 20005KT 1/2SM FG OVC003 FM261200 31004KT 2SM BR BKN008 FM261400 35006KT 3SM BR BKN010 FM261700 01007KT P6SM BKN050 FM270000 07003KT P6SM BKN010